Latest Weather Observations for Broken Hill Airport

IDN60801

Issued at 8:05 pm EST Friday 18 April 2014 (issued every 30 minutes, with the page automatically refreshed every 10 minutes)

About weather observations | Map of weather stations | Latest weather observations for NSW | Other Formats
Station Details ID: 047048 Name: BROKEN HILL AIRPORT AWS Lat: -32.00 Lon: 141.47 Height: 281.3 m
Data from the previous 72 hours. | See also: Recent months for locations in New South Wales
Date/Time
EST
Temp
°C
App
Temp
°C
Dew
Point
Rel
Hum
%
Delta-T
°C
Wind Press
QNH
hPa
Press
MSL
hPa
Rain
since 9 am
mm
Dir
 
Spd
km/h
Gust
km/h
Spd
kts
Gust
kts
18/08:00pm 17.1 14.6 10.9 67 3.4 SSW 15 17 8 9 1021.0 - 0.0
18/07:30pm 17.8 14.5 10.9 64 3.8 S 19 24 10 13 1020.8 - 0.0
18/07:00pm 18.6 14.2 10.4 59 4.5 SSW 24 30 13 16 1020.5 - 0.0
18/06:30pm 19.7 14.0 11.2 58 4.7 SSW 32 39 17 21 1020.1 1019.4 0.0
18/06:00pm 21.0 15.4 10.2 50 5.9 SSW 30 39 16 21 1019.7 - 0.0
18/05:30pm 21.5 16.3 8.7 44 6.9 SW 26 33 14 18 1019.4 - 0.0
18/05:00pm 22.8 16.9 8.9 41 7.5 SW 30 39 16 21 1019.1 - 0.0
18/04:30pm 21.7 16.1 8.6 43 7.0 SSW 28 35 15 19 1019.1 - 0.0
18/04:00pm 23.4 17.2 9.4 41 7.7 SSW 32 43 17 23 1019.0 - 0.0
18/03:30pm 22.8 16.6 9.2 42 7.4 SSW 32 43 17 23 1018.9 1018.2 0.0
18/03:00pm 23.3 17.1 9.3 41 7.7 SW 32 41 17 22 1018.8 - 0.0
18/02:30pm 23.0 17.7 9.8 43 7.3 SSW 28 39 15 21 1018.9 - 0.0
18/02:00pm 22.5 16.2 9.6 44 7.1 SW 33 46 18 25 1019.1 - 0.0
18/01:38pm 21.9 16.0 9.1 44 6.9 SW 30 48 16 26 1019.2 - 0.0
18/01:30pm 21.7 15.4 8.9 44 6.9 SW 32 41 17 22 1019.4 - 0.0
18/01:00pm 21.4 15.0 8.7 44 6.8 SW 32 39 17 21 1019.8 - 0.0
18/12:30pm 21.5 15.5 8.7 44 6.8 SW 30 39 16 21 1020.1 1019.4 0.0
18/12:00pm 20.6 14.5 9.8 50 5.9 WSW 32 41 17 22 1020.6 - 0.0
18/11:30am 20.9 15.4 10.4 51 5.8 SW 30 39 16 21 1020.7 - 0.0
18/11:00am 20.4 15.2 10.2 52 5.6 SW 28 35 15 19 1020.8 - 0.0
18/10:30am 20.1 15.2 9.9 52 5.5 WSW 26 35 14 19 1021.0 - 0.0
18/10:00am 19.8 15.5 10.8 56 5.0 SW 24 30 13 16 1021.1 - 0.0
18/09:30am 18.8 14.0 10.4 58 4.6 SW 26 35 14 19 1021.3 1020.6 0.0
18/09:00am 18.3 13.0 9.9 58 4.5 SW 28 35 15 19 1021.3 - 0.0
18/08:30am 18.4 13.2 8.9 54 5.0 WSW 26 35 14 19 1021.1 - 0.0
18/08:00am 17.0 13.0 8.4 57 4.5 WNW 19 24 10 13 1020.8 - 0.0
18/07:30am 17.1 13.0 8.0 55 4.7 WNW 19 24 10 13 1020.4 - 0.0
18/07:00am 16.4 13.8 7.9 57 4.3 NW 11 13 6 7 1020.0 - 0.0
18/06:30am 15.4 13.6 9.5 68 3.1 NNW 9 13 5 7 1019.8 1019.0 0.0
18/06:00am 11.9 10.2 8.2 78 1.8 N 7 9 4 5 1019.6 - 0.0
18/05:30am 12.2 10.5 8.3 77 2.0 NNE 7 9 4 5 1019.6 - 0.0
18/05:00am 12.5 10.8 8.2 75 2.2 NE 7 9 4 5 1019.6 - 0.0
18/04:30am 12.7 10.2 8.4 75 2.2 ENE 11 13 6 7 1019.5 - 0.0
18/04:00am 12.4 9.6 8.5 77 2.0 ENE 13 13 7 7 1019.5 - 0.0
18/03:30am 12.9 10.4 8.2 73 2.4 NE 11 13 6 7 1019.6 1018.8 0.0
18/03:00am 13.1 10.9 8.0 71 2.6 NE 9 11 5 6 1019.7 - 0.0
18/02:30am 16.8 14.1 7.4 54 4.8 N 11 13 6 7 1020.1 - 0.0
18/02:00am 17.2 13.7 7.3 52 5.0 N 15 17 8 9 1020.2 - 0.0
18/01:30am 17.2 14.5 7.5 53 4.9 N 11 13 6 7 1020.4 - 0.0
18/01:00am 17.6 14.1 7.4 51 5.2 N 15 17 8 9 1020.4 - 0.0
18/12:30am 17.3 14.9 8.7 57 4.5 N 11 15 6 8 1020.7 1020.0 0.0
18/12:00am 17.5 14.4 7.3 51 5.2 N 13 17 7 9 1020.9 - 0.0
 
Date/Time
EST
Temp
°C
App
Temp
°C
Dew
Point
Rel
Hum
%
Delta-T
°C
Wind Press
QNH
hPa
Press
MSL
hPa
Rain
since 9 am
mm
Dir
 
Spd
km/h
Gust
km/h
Spd
kts
Gust
kts
17/11:30pm 16.5 13.9 7.7 56 4.5 NNE 11 13 6 7 1021.1 - 0.0
17/11:00pm 16.0 13.8 7.7 58 4.2 NE 9 11 5 6 1021.3 - 0.0
17/10:30pm 17.4 15.4 7.2 51 5.2 NNE 7 9 4 5 1021.3 - 0.0
17/10:00pm 15.2 13.0 7.7 61 3.8 ENE 9 11 5 6 1021.3 - 0.0
17/09:30pm 17.7 15.8 6.6 48 5.6 NNW 6 7 3 4 1021.4 1020.7 0.0
17/09:00pm 17.3 16.3 7.4 52 5.0 NW 2 11 1 6 1021.2 - 0.0
17/08:30pm 16.1 15.9 9.1 63 3.7 CALM 0 0 0 0 1020.9 - 0.0
17/08:00pm 17.4 17.1 8.5 56 4.6 CALM 0 0 0 0 1020.8 - 0.0
17/07:30pm 19.3 18.6 7.1 45 6.3 CALM 0 4 0 2 1020.7 - 0.0
17/07:00pm 21.0 18.7 5.8 37 7.7 W 7 9 4 5 1020.5 - 0.0
17/06:30pm 21.4 19.3 5.7 36 7.9 WSW 6 7 3 4 1020.2 1019.5 0.0
17/06:00pm 22.2 19.2 6.0 35 8.3 WSW 11 15 6 8 1020.1 - 0.0
17/05:30pm 24.0 21.4 6.3 32 9.2 SW 9 15 5 8 1019.9 - 0.0
17/05:00pm 24.4 21.4 6.2 31 9.5 W 11 17 6 9 1019.8 - 0.0
17/04:30pm 24.3 20.8 5.6 30 9.6 SW 13 19 7 10 1019.9 - 0.0
17/04:00pm 24.2 20.7 5.5 30 9.6 S 13 19 7 10 1019.9 - 0.0
17/03:30pm 24.6 21.2 5.9 30 9.7 WSW 13 20 7 11 1020.0 1019.2 0.0
17/03:00pm 24.1 20.8 6.4 32 9.2 SW 13 20 7 11 1020.3 - 0.0
17/02:30pm 24.1 21.0 5.5 30 9.5 WSW 11 22 6 12 1020.5 - 0.0
17/02:00pm 23.9 20.2 6.2 32 9.2 WNW 15 22 8 12 1020.6 - 0.0
17/01:30pm 24.0 21.0 7.6 35 8.7 WNW 13 22 7 12 1021.0 - 0.0
17/01:00pm 23.3 19.9 6.1 33 8.9 SW 13 20 7 11 1021.5 - 0.0
17/12:30pm 23.1 20.2 6.4 34 8.6 WSW 11 17 6 9 1021.9 1021.2 0.0
17/12:00pm 22.7 19.8 6.5 35 8.4 SW 11 13 6 7 1022.3 - 0.0
17/11:30am 22.5 19.4 5.4 33 8.7 W 11 17 6 9 1022.4 - 0.0
17/11:00am 22.0 19.3 5.8 35 8.2 W 9 15 5 8 1022.6 - 0.0
17/10:30am 21.9 19.9 6.2 36 8.0 SW 6 11 3 6 1022.6 - 0.0
17/10:00am 21.4 19.7 6.1 37 7.8 WNW 4 9 2 5 1022.5 - 0.0
17/09:30am 20.7 18.6 5.9 38 7.5 WNW 6 11 3 6 1022.5 1021.8 0.0
17/09:00am 19.8 18.2 8.2 47 6.1 N 6 9 3 5 1022.4 - 0.0
17/08:30am 18.1 16.7 8.7 54 4.9 NNE 6 9 3 5 1022.1 - 0.0
17/08:00am 14.5 13.3 10.3 76 2.2 ENE 7 9 4 5 1021.8 - 0.0
17/07:30am 11.9 10.3 8.9 82 1.5 NE 7 9 4 5 1021.5 - 0.0
17/07:00am 10.6 8.7 7.5 81 1.5 NNE 7 9 4 5 1021.2 - 0.0
17/06:30am 10.3 9.7 7.4 82 1.4 CALM 0 0 0 0 1021.0 1020.3 0.0
17/06:00am 10.6 10.1 7.7 82 1.4 CALM 0 0 0 0 1020.7 - 0.0
17/05:30am 10.8 10.2 7.5 80 1.6 CALM 0 0 0 0 1020.6 - 0.0
17/05:00am 11.0 10.3 6.9 76 2.0 CALM 0 0 0 0 1020.5 - 0.0
17/04:30am 11.1 10.5 7.6 79 1.7 CALM 0 0 0 0 1020.4 - 0.0
17/04:00am 10.7 10.1 7.4 80 1.6 CALM 0 0 0 0 1020.1 - 0.0
17/03:30am 11.4 10.8 7.5 77 1.9 CALM 0 0 0 0 1020.1 1019.4 0.0
17/03:00am 11.6 11.0 7.5 76 2.0 CALM 0 0 0 0 1020.1 - 0.0
17/02:30am 11.1 10.4 6.8 75 2.1 CALM 0 0 0 0 1020.2 - 0.0
17/02:00am 12.5 11.9 7.4 71 2.5 CALM 0 0 0 0 1020.5 - 0.0
17/01:30am 13.2 12.6 7.6 69 2.8 CALM 0 0 0 0 1020.6 - 0.0
17/01:00am 12.4 11.8 7.3 71 2.5 CALM 0 0 0 0 1020.7 - 0.0
17/12:30am 12.9 12.2 7.1 68 2.8 CALM 0 0 0 0 1020.7 1020.0 0.0
17/12:00am 14.0 13.4 7.3 64 3.3 CALM 0 0 0 0 1020.7 - 0.0
 
Date/Time
EST
Temp
°C
App
Temp
°C
Dew
Point
Rel
Hum
%
Delta-T
°C
Wind Press
QNH
hPa
Press
MSL
hPa
Rain
since 9 am
mm
Dir
 
Spd
km/h
Gust
km/h
Spd
kts
Gust
kts
16/11:30pm 15.2 14.4 6.7 57 4.2 CALM 0 0 0 0 1020.8 - 0.0
16/11:00pm 14.1 13.5 7.6 65 3.3 CALM 0 0 0 0 1021.1 - 0.0
16/10:30pm 14.8 14.2 7.4 61 3.7 CALM 0 0 0 0 1021.1 - 0.0
16/10:00pm 15.9 15.2 6.9 55 4.5 CALM 0 0 0 0 1021.1 - 0.0
16/09:30pm 16.0 15.3 7.0 55 4.5 CALM 0 0 0 0 1021.1 1020.4 0.0
16/09:00pm 16.1 15.4 7.1 55 4.5 CALM 0 0 0 0 1020.9 - 0.0
16/08:30pm 16.4 15.8 7.6 56 4.5 CALM 0 0 0 0 1020.7 - 0.0
16/08:00pm 16.4 14.7 7.6 56 4.5 S 6 7 3 4 1020.4 - 0.0
16/07:30pm 17.0 16.4 7.6 54 4.8 CALM 0 4 0 2 1020.1 - 0.0
16/07:00pm 17.6 15.9 7.4 51 5.2 SSW 6 7 3 4 1019.9 - 0.0
16/06:30pm 18.3 15.7 7.7 50 5.5 SSW 11 13 6 7 1019.6 1018.8 0.0
16/06:00pm 20.4 17.2 6.7 41 7.0 SSW 13 15 7 8 1019.6 - 0.0
16/05:30pm 22.1 19.2 6.7 37 8.0 SW 11 17 6 9 1019.4 - 0.0
16/05:00pm 22.6 18.8 6.0 34 8.5 WSW 15 20 8 11 1018.9 - 0.0
16/04:30pm 22.9 20.0 6.6 35 8.5 SSW 11 17 6 9 1018.8 - 0.0
16/04:00pm 22.9 19.6 6.2 34 8.6 WSW 13 20 7 11 1018.7 - 0.0
16/03:30pm 22.7 19.3 6.0 34 8.6 SW 13 22 7 12 1018.8 1018.1 0.0
16/03:00pm 22.6 19.0 6.8 36 8.2 SW 15 20 8 11 1019.4 - 0.0
16/02:30pm 22.3 18.0 5.3 33 8.6 WSW 17 24 9 13 1019.6 - 0.0
16/02:00pm 22.0 18.3 6.3 36 8.1 WSW 15 22 8 12 1019.8 - 0.0
16/01:30pm 21.6 18.1 5.5 35 8.1 WSW 13 24 7 13 1019.9 - 0.0
16/01:00pm 21.5 18.2 6.2 37 7.8 WSW 13 20 7 11 1020.4 - 0.0
16/12:30pm 20.5 16.8 6.1 39 7.3 WSW 15 22 8 12 1020.8 1020.1 0.0
16/12:00pm 20.4 15.9 6.0 39 7.3 W 19 24 10 13 1021.4 - 0.0
16/11:30am 19.8 17.4 7.2 44 6.5 SSW 9 15 5 8 1021.6 - 0.0
16/11:00am 19.0 18.5 7.8 48 5.8 CALM 0 6 0 3 1021.7 - 0.0
16/10:30am 17.7 16.2 8.6 55 4.8 SW 6 11 3 6 1021.7 - 0.0
16/10:00am 16.9 15.6 9.1 60 4.1 SSW 6 9 3 5 1021.8 - 0.0
16/09:30am 15.7 14.0 9.8 68 3.1 SSW 9 13 5 7 1022.1 1021.4 0.0
16/09:00am 14.4 11.7 9.0 70 2.8 SSW 13 19 7 10 1022.2 - 0.0
16/08:30am 13.3 10.6 9.0 75 2.2 SSW 13 15 7 8 1022.2 - 0.0
16/08:00am 11.6 10.0 8.6 82 1.5 SSW 7 9 4 5 1021.9 - 0.0
16/07:30am 10.0 9.5 7.8 86 1.1 CALM 0 0 0 0 1021.6 - 0.0
16/07:00am 10.2 9.8 8.1 87 1.0 CALM 0 0 0 0 1021.2 - 0.0
16/06:30am 9.6 9.0 7.5 87 1.0 CALM 0 0 0 0 1021.1 1020.4 0.0
16/06:00am 9.5 8.9 7.3 86 1.1 CALM 0 0 0 0 1020.9 - 0.0
16/05:30am 9.1 8.5 7.2 88 0.9 CALM 0 0 0 0 1020.9 - 0.0
16/05:00am 10.2 9.6 7.4 83 1.4 CALM 0 0 0 0 1020.4 - 0.0
16/04:30am 10.4 9.8 7.5 82 1.4 CALM 0 0 0 0 1020.1 - 0.0
16/04:00am 10.5 9.8 7.0 79 1.7 CALM 0 0 0 0 1020.2 - 0.0
16/03:30am 12.6 12.1 7.9 73 2.3 CALM 0 0 0 0 1020.3 1019.6 0.0
16/03:00am 12.4 11.9 7.7 73 2.3 CALM 0 0 0 0 1020.2 - 0.0
16/02:30am 12.4 11.9 7.7 73 2.3 CALM 0 0 0 0 1020.5 - 0.0
16/02:00am 12.4 10.9 8.3 76 2.1 WSW 6 7 3 4 1020.6 - 0.0
16/01:30am 12.9 11.3 8.6 75 2.2 W 7 9 4 5 1020.8 - 0.0
16/01:00am 13.4 10.9 8.3 71 2.6 SSE 11 15 6 8 1020.7 - 0.0
16/12:30am 14.1 10.9 8.3 68 2.9 SSE 15 17 8 9 1020.6 1019.9 0.0
16/12:00am 14.7 11.1 8.4 66 3.2 SSE 17 20 9 11 1020.6 - 0.0
 
Date/Time
EST
Temp
°C
App
Temp
°C
Dew
Point
Rel
Hum
%
Delta-T
°C
Wind Press
QNH
hPa
Press
MSL
hPa
Rain
since 9 am
mm
Dir
 
Spd
km/h
Gust
km/h
Spd
kts
Gust
kts
15/11:30pm 14.9 11.3 8.4 65 3.3 SSE 17 20 9 11 1021.0 - 0.0
15/11:00pm 15.4 11.6 8.9 65 3.4 SSE 19 22 10 12 1021.2 - 0.0
15/10:30pm 15.8 12.4 9.2 65 3.4 SE 17 22 9 12 1021.2 - 0.0
15/10:00pm 15.5 12.6 9.8 69 3.0 SE 15 19 8 10 1021.3 - 0.0
15/09:30pm 14.8 12.4 10.0 73 2.5 SE 13 15 7 8 1021.3 1020.6 0.0
15/09:00pm 14.7 13.4 9.9 73 2.5 SSE 7 11 4 6 1021.5 - 0.0

Other Formats:

Comma delimited format used in spreadsheet applications
http://www.bom.gov.au/fwo/IDN60801/IDN60801.94691.axf

JavaScript Object Notation format (JSON) in row-major order
http://www.bom.gov.au/fwo/IDN60801/IDN60801.94691.json